This is the latest recevied weather packets stored in our database for station/object HB9GPU-10. If no packets are shown the sender has not sent any weather packets the latest 10 day(s).
| Time | Temp. | Humidity | Pressure | Rain* | Wind** | Luminosity | Snow |
|---|---|---|---|---|---|---|---|
| 1777678754 | 26.67° C | 18% | 1027.5 hPa | - | - | - | - |
| 1777677858 | 25.56° C | 19% | 1027.5 hPa | - | - | - | - |
| 1777677853 | 25.56° C | 19% | 1027.5 hPa | - | - | - | - |
| 1777676957 | 26.11° C | 18% | 1027.5 hPa | - | - | - | - |
| 1777676953 | 26.11° C | 18% | 1027.5 hPa | - | - | - | - |
| 1777676057 | 25.56° C | 19% | 1027.5 hPa | - | - | - | - |
| 1777676053 | 25.56° C | 19% | 1027.5 hPa | - | - | - | - |
| 1777675157 | 25.56° C | 19% | 1027.5 hPa | - | - | - | - |
| 1777675153 | 25.56° C | 19% | 1027.5 hPa | - | - | - | - |
| 1777674258 | 25° C | 19% | 1027.7 hPa | - | - | - | - |
| 1777674254 | 25° C | 19% | 1027.7 hPa | - | - | - | - |
| 1777673357 | 26.11° C | 18% | 1027.6 hPa | - | - | - | - |
| 1777673352 | 26.11° C | 18% | 1027.6 hPa | - | - | - | - |
| 1777672457 | 24.44° C | 20% | 1027.5 hPa | - | - | - | - |
| 1777672452 | 24.44° C | 20% | 1027.5 hPa | - | - | - | - |
| 1777671556 | 24.44° C | 20% | 1027.5 hPa | - | - | - | - |
| 1777671552 | 24.44° C | 20% | 1027.5 hPa | - | - | - | - |
| 1777670656 | 25.56° C | 19% | 1027.4 hPa | - | - | - | - |
| 1777670652 | 25.56° C | 19% | 1027.4 hPa | - | - | - | - |
| 1777669756 | 26.67° C | 17% | 1027.3 hPa | - | - | - | - |
| 1777669752 | 26.67° C | 17% | 1027.3 hPa | - | - | - | - |
| 1777668856 | 24.44° C | 20% | 1027.5 hPa | - | - | - | - |
| 1777668851 | 24.44° C | 20% | 1027.5 hPa | - | - | - | - |
| 1777667956 | 25° C | 19% | 1027.4 hPa | - | - | - | - |
| 1777667951 | 25° C | 19% | 1027.4 hPa | - | - | - | - |
* Rain since midnight (hover to see other rain measurements)
** Current wind speed in m/s (hover to see current wind gust speed)